Time;durP1;ratioP1;P1;durP2;ratioP2;P2;SDS_P1;SDS_P2;PMS_P1;PMS_P2;Temp;Humidity;BMP_temperature;BMP_pressure;BME280_temperature;BME280_humidity;BME280_pressure;Samples;Min_cycle;Max_cycle;Signal;HPM_P1;HPM_P2
2021/11/06 00:00:31;;;;;;;48.13;42.80;;;;;21.90;101652.00;;;;2071095;28;20218;-54
2021/11/06 00:01:31;;;;;;;45.40;40.30;;;;;21.90;101657.00;;;;2073889;28;20245;-54
2021/11/06 00:02:32;;;;;;;51.50;43.93;;;;;21.90;101664.00;;;;2073079;28;21029;-54
2021/11/06 00:03:32;;;;;;;46.50;41.50;;;;;21.90;101661.00;;;;2074041;28;20221;-54
2021/11/06 00:04:32;;;;;;;48.33;42.07;;;;;21.90;101662.00;;;;2079962;28;20236;-54
2021/11/06 00:05:35;;;;;;;47.63;40.27;;;;;21.90;101659.00;;;;2075771;28;20221;-54
2021/11/06 00:06:35;;;;;;;46.20;38.30;;;;;21.90;101660.00;;;;2071634;28;20229;-53
2021/11/06 00:07:35;;;;;;;44.97;39.63;;;;;21.90;101657.00;;;;2074479;28;20222;-54
2021/11/06 00:08:36;;;;;;;45.33;40.33;;;;;21.90;101663.00;;;;2073308;28;20217;-53
2021/11/06 00:09:36;;;;;;;44.63;38.90;;;;;21.90;101656.00;;;;2078516;28;20699;-54
2021/11/06 00:10:36;;;;;;;44.40;36.80;;;;;21.90;101660.00;;;;2076926;28;20700;-53
2021/11/06 00:11:37;;;;;;;47.37;40.33;;;;;21.90;101661.00;;;;2074355;28;20584;-54
2021/11/06 00:12:37;;;;;;;42.80;38.10;;;;;21.90;101657.00;;;;2075776;28;20241;-53
2021/11/06 00:13:37;;;;;;;42.20;36.13;;;;;21.90;101668.00;;;;2076873;28;20283;-53
2021/11/06 00:14:38;;;;;;;41.40;37.00;;;;;21.80;101656.00;;;;2075779;28;20206;-54
2021/11/06 00:15:38;;;;;;;41.77;36.40;;;;;21.80;101662.00;;;;2074079;28;20197;-53
2021/11/06 00:16:38;;;;;;;41.63;37.10;;;;;21.80;101663.00;;;;2069052;28;20202;-53
2021/11/06 00:17:39;;;;;;;40.83;36.37;;;;;21.80;101664.00;;;;2075255;28;20216;-54
2021/11/06 00:18:39;;;;;;;40.07;35.67;;;;;21.80;101661.00;;;;2071284;28;20202;-53
2021/11/06 00:19:39;;;;;;;41.47;34.60;;;;;21.80;101662.00;;;;2070681;28;20230;-54
2021/11/06 00:20:40;;;;;;;39.17;34.87;;;;;21.80;101656.00;;;;2071842;28;20210;-53
2021/11/06 00:21:40;;;;;;;40.07;35.23;;;;;21.80;101660.00;;;;2072064;28;20210;-53
2021/11/06 00:22:40;;;;;;;37.80;33.50;;;;;21.80;101670.00;;;;2075772;28;20292;-53
2021/11/06 00:23:41;;;;;;;39.93;33.70;;;;;21.80;101659.00;;;;2076638;28;20217;-53
2021/11/06 00:24:41;;;;;;;36.73;32.43;;;;;21.80;101665.00;;;;2079031;28;20809;-53
2021/11/06 00:25:42;;;;;;;37.80;32.67;;;;;21.80;101660.00;;;;2073425;28;20214;-54
2021/11/06 00:26:42;;;;;;;38.20;31.93;;;;;21.80;101656.00;;;;2074441;28;20222;-54
2021/11/06 00:27:44;;;;;;;34.80;30.60;;;;;21.80;101660.00;;;;2072004;28;20745;-54
2021/11/06 00:28:45;;;;;;;35.65;30.83;;;;;21.80;101662.00;;;;2071324;28;20297;-54
2021/11/06 00:29:45;;;;;;;35.77;31.70;;;;;21.80;101667.00;;;;2079050;28;20209;-54
2021/11/06 00:30:45;;;;;;;37.07;32.60;;;;;21.80;101661.00;;;;2080027;28;20218;-54
2021/11/06 00:31:47;;;;;;;33.67;30.07;;;;;21.80;101656.00;;;;2079556;28;20317;-53
2021/11/06 00:32:47;;;;;;;33.35;29.75;;;;;21.80;101656.00;;;;2072843;28;20582;-53
2021/11/06 00:33:47;;;;;;;35.00;31.40;;;;;21.80;101661.00;;;;2087396;28;20292;-54
2021/11/06 00:34:48;;;;;;;33.73;29.40;;;;;21.80;101671.00;;;;2076086;28;20273;-54
2021/11/06 00:35:48;;;;;;;33.10;29.70;;;;;21.80;101677.00;;;;2071979;28;20297;-54
2021/11/06 00:36:48;;;;;;;35.20;29.67;;;;;21.80;101666.00;;;;2071861;28;20221;-53
2021/11/06 00:37:49;;;;;;;31.93;28.37;;;;;21.80;101668.00;;;;2071952;28;20703;-53
2021/11/06 00:38:50;;;;;;;35.83;28.70;;;;;21.70;101665.00;;;;2071083;28;20222;-53
2021/11/06 00:39:50;;;;;;;30.20;26.60;;;;;21.80;101664.00;;;;2071921;28;20206;-53
2021/11/06 00:40:50;;;;;;;31.53;27.97;;;;;21.70;101665.00;;;;2080018;28;20444;-54
2021/11/06 00:41:51;;;;;;;28.97;25.93;;;;;21.80;101669.00;;;;2078702;28;20304;-54
2021/11/06 00:42:51;;;;;;;30.70;26.57;;;;;21.70;101664.00;;;;2077560;28;20287;-53
2021/11/06 00:43:51;;;;;;;30.30;26.10;;;;;21.70;101658.00;;;;2075226;28;20235;-54
2021/11/06 00:44:52;;;;;;;27.23;24.27;;;;;21.70;101659.00;;;;2076011;28;20228;-54
2021/11/06 00:45:52;;;;;;;29.27;24.90;;;;;21.70;101658.00;;;;2075850;28;20222;-54
2021/11/06 00:46:52;;;;;;;28.97;25.20;;;;;21.70;101661.00;;;;2075764;28;20313;-53
2021/11/06 00:47:53;;;;;;;30.60;25.33;;;;;21.70;101654.00;;;;2079572;28;20225;-54
2021/11/06 00:48:53;;;;;;;28.80;25.70;;;;;21.70;101655.00;;;;2074926;28;20226;-54
2021/11/06 00:49:53;;;;;;;27.50;24.67;;;;;21.70;101659.00;;;;2071819;28;20222;-54
2021/11/06 00:50:54;;;;;;;27.63;24.70;;;;;21.70;101663.00;;;;2071829;28;20590;-53
2021/11/06 00:51:54;;;;;;;26.73;23.70;;;;;21.70;101653.00;;;;2071827;28;21374;-54
2021/11/06 00:52:55;;;;;;;26.40;23.60;;;;;21.70;101658.00;;;;2071807;28;20307;-53
2021/11/06 00:53:55;;;;;;;26.10;22.27;;;;;21.70;101659.00;;;;2078082;28;20241;-53
2021/11/06 00:54:55;;;;;;;27.77;23.27;;;;;21.70;101669.00;;;;2079840;28;20248;-54
2021/11/06 00:55:56;;;;;;;28.77;24.40;;;;;21.70;101657.00;;;;2072607;28;20667;-54
2021/11/06 00:56:56;;;;;;;25.73;22.63;;;;;21.70;101665.00;;;;2079615;28;20589;-53
2021/11/06 00:57:56;;;;;;;25.40;21.80;;;;;21.70;101669.00;;;;2072269;28;20249;-53
2021/11/06 00:58:57;;;;;;;25.80;22.33;;;;;21.70;101666.00;;;;2079008;28;20220;-54
2021/11/06 00:59:57;;;;;;;24.60;21.77;;;;;21.70;101669.00;;;;2079814;28;20308;-53
2021/11/06 01:00:57;;;;;;;24.67;21.80;;;;;21.70;101667.00;;;;2074179;28;20221;-53
2021/11/06 01:01:58;;;;;;;23.63;21.03;;;;;21.70;101660.00;;;;2073768;28;20221;-54
2021/11/06 01:02:58;;;;;;;22.10;19.63;;;;;21.70;101665.00;;;;2079952;28;20233;-53
2021/11/06 01:03:58;;;;;;;23.37;20.70;;;;;21.70;101668.00;;;;2079894;28;20243;-54
2021/11/06 01:04:59;;;;;;;24.30;21.30;;;;;21.70;101673.00;;;;2079964;28;20296;-54
2021/11/06 01:05:59;;;;;;;24.10;20.40;;;;;21.70;101668.00;;;;2079703;28;20218;-53
2021/11/06 01:06:59;;;;;;;22.00;19.37;;;;;21.70;101673.00;;;;2079398;28;20693;-53
2021/11/06 01:08:00;;;;;;;23.77;20.93;;;;;21.70;101669.00;;;;2076562;28;20294;-53
2021/11/06 01:09:00;;;;;;;21.90;19.60;;;;;21.70;101668.00;;;;2077588;28;20217;-53
2021/11/06 01:10:01;;;;;;;22.23;19.00;;;;;21.70;101673.00;;;;2071632;28;20222;-53
2021/11/06 01:11:01;;;;;;;22.00;19.70;;;;;21.60;101680.00;;;;2073783;28;20218;-54
2021/11/06 01:12:02;;;;;;;21.97;19.40;;;;;21.70;101671.00;;;;2076348;28;20563;-54
2021/11/06 01:13:02;;;;;;;22.50;19.50;;;;;21.70;101669.00;;;;2078180;28;20267;-54
2021/11/06 01:14:03;;;;;;;20.40;18.27;;;;;21.70;101666.00;;;;2076261;28;20701;-54
2021/11/06 01:15:05;;;;;;;21.20;18.60;;;;;21.70;101669.00;;;;2079288;28;20260;-54
2021/11/06 01:16:05;;;;;;;23.67;19.65;;;;;21.60;101673.00;;;;2075422;28;20338;-54
2021/11/06 01:17:06;;;;;;;20.77;18.57;;;;;21.70;101673.00;;;;2075986;28;20222;-54
2021/11/06 01:18:06;;;;;;;21.37;19.10;;;;;21.60;101666.00;;;;2078911;28;20214;-53
2021/11/06 01:19:06;;;;;;;22.07;18.67;;;;;21.70;101672.00;;;;2072120;28;20694;-54
2021/11/06 01:20:07;;;;;;;21.23;19.00;;;;;21.60;101664.00;;;;2071478;28;20241;-53
2021/11/06 01:21:07;;;;;;;20.47;18.10;;;;;21.60;101679.00;;;;2078792;28;20279;-54
2021/11/06 01:22:08;;;;;;;20.13;18.07;;;;;21.60;101674.00;;;;2079447;28;20241;-53
2021/11/06 01:23:08;;;;;;;19.47;16.50;;;;;21.60;101670.00;;;;2078639;28;20309;-53
2021/11/06 01:24:09;;;;;;;21.97;18.63;;;;;21.60;101672.00;;;;2070764;28;20690;-53
2021/11/06 01:25:09;;;;;;;19.00;16.90;;;;;21.60;101670.00;;;;2078859;28;20210;-53
2021/11/06 01:26:10;;;;;;;19.50;17.50;;;;;21.60;101674.00;;;;2074547;28;20805;-54
2021/11/06 01:27:11;;;;;;;17.80;15.90;;;;;21.60;101676.00;;;;2076534;28;20232;-57
2021/11/06 01:28:11;;;;;;;18.30;16.27;;;;;21.60;101679.00;;;;2075739;28;21100;-54
2021/11/06 01:29:11;;;;;;;19.03;17.10;;;;;21.60;101682.00;;;;2072160;28;20222;-55
2021/11/06 01:30:12;;;;;;;18.33;16.43;;;;;21.60;101681.00;;;;2071423;28;20218;-54
2021/11/06 01:31:12;;;;;;;18.63;16.73;;;;;21.60;101677.00;;;;2071544;28;20222;-54
2021/11/06 01:32:13;;;;;;;18.20;16.13;;;;;21.60;101686.00;;;;2078961;28;20213;-53
2021/11/06 01:33:13;;;;;;;18.30;15.90;;;;;21.60;101681.00;;;;2071540;28;20653;-54
2021/11/06 01:34:13;;;;;;;19.23;17.23;;;;;21.60;101681.00;;;;2070985;28;20214;-53
2021/11/06 01:35:14;;;;;;;16.87;15.17;;;;;21.60;101684.00;;;;2070806;28;20285;-53
2021/11/06 01:36:15;;;;;;;19.83;16.53;;;;;21.50;101684.00;;;;2073596;28;20213;-53
2021/11/06 01:37:15;;;;;;;18.60;16.63;;;;;21.50;101678.00;;;;2072821;28;20256;-54
2021/11/06 01:38:15;;;;;;;18.40;16.03;;;;;21.60;101683.00;;;;2071306;28;20460;-53
2021/11/06 01:39:16;;;;;;;22.33;15.80;;;;;21.60;101686.00;;;;2077962;28;20213;-53
2021/11/06 01:40:17;;;;;;;18.10;15.90;;;;;21.60;101679.00;;;;2079397;28;20694;-53
2021/11/06 01:41:18;;;;;;;18.38;16.00;;;;;21.60;101676.00;;;;2071598;28;20226;-53
2021/11/06 01:42:18;;;;;;;18.17;15.13;;;;;21.60;101683.00;;;;2071497;28;20210;-54
2021/11/06 01:43:18;;;;;;;17.90;15.20;;;;;21.60;101681.00;;;;2073252;28;20217;-53
2021/11/06 01:44:19;;;;;;;16.13;14.43;;;;;21.60;101682.00;;;;2073483;28;20238;-53
2021/11/06 01:45:19;;;;;;;18.67;14.90;;;;;21.60;101682.00;;;;2073856;28;20210;-53
2021/11/06 01:46:20;;;;;;;17.60;14.17;;;;;21.60;101686.00;;;;2079546;28;20218;-53
2021/11/06 01:47:20;;;;;;;17.07;13.73;;;;;21.60;101690.00;;;;2078298;28;20217;-53
2021/11/06 01:48:20;;;;;;;17.47;14.57;;;;;21.60;101682.00;;;;2071865;28;20211;-54
2021/11/06 01:49:21;;;;;;;17.20;14.60;;;;;21.60;101673.00;;;;2070462;28;20242;-53
2021/11/06 01:50:22;;;;;;;15.50;13.30;;;;;21.60;101682.00;;;;2071282;28;20268;-53
2021/11/06 01:51:22;;;;;;;15.33;12.93;;;;;21.60;101677.00;;;;2075303;28;20221;-53
2021/11/06 01:52:22;;;;;;;18.43;14.00;;;;;21.50;101669.00;;;;2073080;28;20276;-53
2021/11/06 01:53:23;;;;;;;16.20;13.30;;;;;21.60;101681.00;;;;2073345;28;20221;-53
2021/11/06 01:54:25;;;;;;;16.53;13.87;;;;;21.60;101682.00;;;;2073194;28;20224;-53
2021/11/06 01:55:25;;;;;;;17.50;14.50;;;;;21.50;101678.00;;;;2078726;28;20260;-53
2021/11/06 01:56:26;;;;;;;14.90;13.03;;;;;21.50;101675.00;;;;2079435;28;20679;-54
2021/11/06 01:57:27;;;;;;;15.50;13.00;;;;;21.50;101682.00;;;;2075016;28;20219;-53
2021/11/06 01:58:28;;;;;;;17.77;13.80;;;;;21.50;101674.00;;;;2070761;28;20694;-53
2021/11/06 01:59:29;;;;;;;16.20;12.30;;;;;21.50;101671.00;;;;2077925;28;20276;-53
2021/11/06 02:00:30;;;;;;;14.10;11.90;;;;;21.50;101683.00;;;;2079366;28;20471;-53
2021/11/06 02:01:30;;;;;;;15.15;12.32;;;;;21.50;101677.00;;;;2079450;28;20225;-54
2021/11/06 02:02:31;;;;;;;14.30;12.50;;;;;21.50;101682.00;;;;2079398;28;20593;-53
2021/11/06 02:03:31;;;;;;;13.47;12.07;;;;;21.50;101681.00;;;;2070654;28;20214;-54
2021/11/06 02:04:31;;;;;;;14.90;12.60;;;;;21.50;101676.00;;;;2070690;28;20327;-53
2021/11/06 02:05:32;;;;;;;15.10;11.73;;;;;21.50;101677.00;;;;2071065;28;20218;-53
2021/11/06 02:06:32;;;;;;;12.70;10.90;;;;;21.30;101676.00;;;;2074309;28;20222;-53
2021/11/06 02:07:33;;;;;;;12.43;11.20;;;;;21.50;101675.00;;;;2070704;28;20230;-53
2021/11/06 02:08:33;;;;;;;12.70;11.17;;;;;21.50;101683.00;;;;2070641;28;20218;-53
2021/11/06 02:09:33;;;;;;;14.13;10.40;;;;;21.50;101682.00;;;;2075912;28;20248;-53
2021/11/06 02:10:34;;;;;;;14.67;11.47;;;;;21.50;101686.00;;;;2074880;28;20213;-53
2021/11/06 02:11:38;;;;;;;12.63;10.53;;;;;21.50;101680.00;;;;2069711;28;20225;-53
2021/11/06 02:12:39;;;;;;;13.65;11.30;;;;;21.50;101678.00;;;;2058347;28;20219;-53
2021/11/06 02:13:39;;;;;;;13.53;11.20;;;;;21.50;101671.00;;;;2070537;28;20669;-53
2021/11/06 02:14:39;;;;;;;12.90;10.43;;;;;21.50;101680.00;;;;2070020;28;20449;-53
2021/11/06 02:15:40;;;;;;;12.53;10.70;;;;;21.50;101668.00;;;;2073454;28;20205;-53
2021/11/06 02:16:40;;;;;;;11.20;9.83;;;;;21.50;101670.00;;;;2072789;28;20634;-53
2021/11/06 02:17:42;;;;;;;12.63;11.30;;;;;21.50;101679.00;;;;2070450;28;20221;-53
2021/11/06 02:18:42;;;;;;;12.43;10.20;;;;;21.50;101675.00;;;;2069838;28;20226;-53
2021/11/06 02:19:43;;;;;;;12.77;10.80;;;;;21.50;101678.00;;;;2069167;28;20229;-54
2021/11/06 02:20:57;;;;;;;13.17;10.13;;;;;21.50;101671.00;;;;2069687;28;20225;-53
2021/11/06 02:21:59;;;;;;;12.95;9.98;;;;;21.50;101673.00;;;;2076848;28;20678;-53
2021/11/06 02:22:59;;;;;;;13.90;10.23;;;;;21.50;101675.00;;;;2078559;28;20311;-53
2021/11/06 02:24:00;;;;;;;12.40;10.50;;;;;21.50;101673.00;;;;2078280;28;20717;-53
2021/11/06 02:25:00;;;;;;;12.83;10.20;;;;;21.50;101673.00;;;;2077976;28;20213;-53
2021/11/06 02:26:01;;;;;;;12.60;10.50;;;;;21.50;101668.00;;;;2078193;28;20206;-53
2021/11/06 02:27:01;;;;;;;12.93;11.10;;;;;21.50;101672.00;;;;2078905;28;20245;-54
2021/11/06 02:28:01;;;;;;;10.80;9.70;;;;;21.50;101666.00;;;;2078634;28;20571;-53
2021/11/06 02:29:02;;;;;;;12.93;9.40;;;;;21.40;101662.00;;;;2077695;28;20221;-54
2021/11/06 02:30:06;;;;;;;12.38;9.90;;;;;21.40;101666.00;;;;2078585;28;20216;-53
2021/11/06 02:31:06;;;;;;;12.02;9.60;;;;;21.40;101670.00;;;;2074981;28;20221;-53
2021/11/06 02:32:07;;;;;;;11.77;10.50;;;;;21.40;101662.00;;;;2070313;28;20245;-54
2021/11/06 02:33:08;;;;;;;12.43;10.27;;;;;21.40;101664.00;;;;2070219;28;20261;-53
2021/11/06 02:34:10;;;;;;;13.15;10.10;;;;;21.50;101658.00;;;;2070552;28;20214;-53
2021/11/06 02:35:10;;;;;;;10.55;8.95;;;;;21.50;101669.00;;;;2070258;28;21010;-53
2021/11/06 02:36:11;;;;;;;10.50;8.40;;;;;21.50;101665.00;;;;2070714;28;20242;-53
2021/11/06 02:37:11;;;;;;;9.90;8.83;;;;;21.40;101659.00;;;;2070332;28;20682;-53
2021/11/06 02:38:11;;;;;;;11.43;10.20;;;;;21.40;101658.00;;;;2070263;28;20222;-53
2021/11/06 02:39:12;;;;;;;10.43;8.30;;;;;21.40;101664.00;;;;2069797;28;21149;-54
2021/11/06 02:40:12;;;;;;;10.80;9.00;;;;;21.40;101660.00;;;;2070575;28;20295;-53
2021/11/06 02:41:13;;;;;;;13.23;9.20;;;;;21.40;101655.00;;;;2070013;28;20779;-53
2021/11/06 02:42:14;;;;;;;9.40;8.50;;;;;21.40;101659.00;;;;2070616;28;20225;-53
2021/11/06 02:43:14;;;;;;;11.68;9.55;;;;;21.40;101657.00;;;;2069912;28;20374;-53
2021/11/06 02:44:15;;;;;;;9.60;8.10;;;;;21.40;101656.00;;;;2072695;28;20218;-53
2021/11/06 02:45:15;;;;;;;10.40;8.37;;;;;21.40;101655.00;;;;2074147;28;20216;-53
2021/11/06 02:46:16;;;;;;;13.20;9.83;;;;;21.40;101658.00;;;;2073716;28;20837;-53
2021/11/06 02:47:16;;;;;;;11.73;9.30;;;;;21.40;101648.00;;;;2071343;28;20292;-53
2021/11/06 02:48:16;;;;;;;10.30;9.03;;;;;21.40;101664.00;;;;2070397;28;20206;-53
2021/11/06 02:49:17;;;;;;;12.60;9.30;;;;;21.40;101666.00;;;;2069164;28;20213;-53
2021/11/06 02:50:17;;;;;;;12.77;9.40;;;;;21.40;101663.00;;;;2070377;28;20218;-53
2021/11/06 02:51:17;;;;;;;9.03;8.10;;;;;21.40;101660.00;;;;2070206;28;20293;-53
2021/11/06 02:52:18;;;;;;;10.50;8.50;;;;;21.40;101656.00;;;;2070661;28;20670;-53
2021/11/06 02:53:18;;;;;;;10.77;9.03;;;;;21.40;101653.00;;;;2070262;28;20804;-54
2021/11/06 02:54:19;;;;;;;10.97;9.03;;;;;21.40;101664.00;;;;2068984;28;20214;-53
2021/11/06 02:55:19;;;;;;;10.40;8.50;;;;;21.40;101659.00;;;;2069336;28;20210;-53
2021/11/06 02:56:23;;;;;;;10.87;9.30;;;;;21.40;101661.00;;;;2069616;28;20210;-53
2021/11/06 02:57:24;;;;;;;10.98;8.25;;;;;21.40;101659.00;;;;2069791;28;20221;-57
2021/11/06 02:58:24;;;;;;;8.73;7.83;;;;;21.40;101660.00;;;;2069968;28;20213;-54
2021/11/06 02:59:24;;;;;;;10.90;8.10;;;;;21.40;101657.00;;;;2069138;28;20214;-55
2021/11/06 03:00:27;;;;;;;9.57;8.00;;;;;21.40;101658.00;;;;2070015;28;20216;-55
2021/11/06 03:01:27;;;;;;;12.23;8.50;;;;;21.40;101658.00;;;;2070116;28;20241;-53
2021/11/06 03:02:28;;;;;;;11.23;8.60;;;;;21.40;101664.00;;;;2069797;28;20748;-53
2021/11/06 03:03:28;;;;;;;11.40;7.73;;;;;21.40;101657.00;;;;2070311;28;20241;-53
2021/11/06 03:04:35;;;;;;;11.17;8.60;;;;;21.40;101659.00;;;;2069461;28;20214;-54
2021/11/06 03:05:36;;;;;;;8.20;7.40;;;;;21.40;101653.00;;;;2067363;28;20222;-53
2021/11/06 03:06:36;;;;;;;10.30;7.60;;;;;21.40;101658.00;;;;2078280;28;20209;-53
2021/11/06 03:07:37;;;;;;;10.40;7.80;;;;;21.40;101655.00;;;;2078821;28;20213;-53
2021/11/06 03:08:37;;;;;;;10.70;7.70;;;;;21.40;101655.00;;;;2078857;28;20717;-53
2021/11/06 03:09:39;;;;;;;10.00;7.50;;;;;21.40;101663.00;;;;2077925;28;20551;-53
2021/11/06 03:10:40;;;;;;;10.02;7.80;;;;;21.40;101651.00;;;;2078701;28;20626;-54
2021/11/06 03:11:40;;;;;;;9.67;7.83;;;;;21.40;101651.00;;;;2078649;28;20301;-53
2021/11/06 03:12:40;;;;;;;10.40;7.67;;;;;21.40;101658.00;;;;2078933;28;20217;-53
2021/11/06 03:13:42;;;;;;;8.40;7.40;;;;;21.40;101661.00;;;;2077898;28;20228;-53
2021/11/06 03:14:43;;;;;;;9.13;7.65;;;;;21.40;101663.00;;;;2073740;28;20272;-54
2021/11/06 03:15:43;;;;;;;9.43;7.30;;;;;21.40;101654.00;;;;2073419;28;20701;-53
2021/11/06 03:16:43;;;;;;;8.63;7.33;;;;;21.40;101667.00;;;;2073435;28;20214;-53
2021/11/06 03:17:44;;;;;;;8.20;6.90;;;;;21.40;101658.00;;;;2070796;28;20214;-53
2021/11/06 03:18:44;;;;;;;11.43;7.90;;;;;21.30;101660.00;;;;2070034;28;20217;-53
2021/11/06 03:19:44;;;;;;;8.70;7.20;;;;;21.30;101663.00;;;;2069687;28;20318;-53
2021/11/06 03:20:45;;;;;;;9.43;7.57;;;;;21.30;101656.00;;;;2070069;28;20217;-53
2021/11/06 03:21:45;;;;;;;8.60;7.50;;;;;21.30;101659.00;;;;2070357;28;20741;-53
2021/11/06 03:22:46;;;;;;;8.90;7.03;;;;;21.30;101661.00;;;;2072215;28;20206;-53
2021/11/06 03:23:46;;;;;;;8.77;7.57;;;;;21.30;101665.00;;;;2073033;28;20210;-54
2021/11/06 03:24:46;;;;;;;8.97;7.40;;;;;21.30;101662.00;;;;2073970;28;20442;-54
2021/11/06 03:25:47;;;;;;;7.50;6.70;;;;;21.30;101655.00;;;;2073975;28;20222;-53
2021/11/06 03:26:47;;;;;;;7.77;6.60;;;;;21.30;101658.00;;;;2070589;28;20218;-54
2021/11/06 03:27:47;;;;;;;9.83;7.20;;;;;21.30;101667.00;;;;2070684;28;20229;-53
2021/11/06 03:28:48;;;;;;;8.37;6.70;;;;;21.30;101655.00;;;;2069616;28;20825;-53
2021/11/06 03:29:48;;;;;;;7.60;6.57;;;;;21.30;101652.00;;;;2070432;28;20305;-53
2021/11/06 03:30:49;;;;;;;7.77;6.50;;;;;21.30;101660.00;;;;2070553;28;20284;-53
2021/11/06 03:31:49;;;;;;;8.47;6.53;;;;;21.30;101668.00;;;;2070277;28;20276;-53
2021/11/06 03:32:50;;;;;;;8.30;6.80;;;;;21.30;101674.00;;;;2071904;28;20454;-53
2021/11/06 03:33:50;;;;;;;6.20;5.60;;;;;21.30;101653.00;;;;2078759;28;20689;-53
2021/11/06 03:34:50;;;;;;;7.70;6.70;;;;;21.30;101657.00;;;;2078770;28;20229;-53
2021/11/06 03:35:51;;;;;;;9.67;6.90;;;;;21.30;101664.00;;;;2078766;28;20205;-54
2021/11/06 03:36:51;;;;;;;7.90;6.10;;;;;21.30;101659.00;;;;2078850;28;20221;-54
2021/11/06 03:37:51;;;;;;;9.67;7.10;;;;;21.30;101667.00;;;;2078483;28;20217;-53
2021/11/06 03:38:52;;;;;;;8.13;6.20;;;;;21.30;101658.00;;;;2078061;28;20304;-53
2021/11/06 03:39:53;;;;;;;7.97;6.30;;;;;21.30;101665.00;;;;2078590;28;20673;-53
2021/11/06 03:40:53;;;;;;;8.23;5.93;;;;;21.30;101664.00;;;;2078790;28;20569;-53
2021/11/06 03:41:53;;;;;;;8.10;6.67;;;;;21.30;101660.00;;;;2078922;28;20267;-53
2021/11/06 03:42:54;;;;;;;8.17;6.23;;;;;21.30;101659.00;;;;2078593;28;20216;-53
2021/11/06 03:43:54;;;;;;;10.13;6.70;;;;;21.30;101658.00;;;;2078615;28;20213;-53
2021/11/06 03:44:54;;;;;;;8.63;6.20;;;;;21.30;101660.00;;;;2078680;28;20320;-54
2021/11/06 03:45:55;;;;;;;7.83;6.07;;;;;21.30;101666.00;;;;2078693;28;20232;-53
2021/11/06 03:46:55;;;;;;;8.63;6.70;;;;;21.30;101668.00;;;;2078069;28;20217;-53
2021/11/06 03:47:56;;;;;;;9.00;5.87;;;;;21.30;101657.00;;;;2070532;28;20261;-53
2021/11/06 03:48:56;;;;;;;5.90;5.30;;;;;21.30;101664.00;;;;2069633;28;20293;-53
2021/11/06 03:49:56;;;;;;;7.23;5.80;;;;;21.30;101668.00;;;;2070480;28;20268;-53
2021/11/06 03:50:57;;;;;;;8.67;6.47;;;;;21.30;101669.00;;;;2070374;28;20213;-53
2021/11/06 03:51:57;;;;;;;7.63;6.10;;;;;21.20;101667.00;;;;2070633;28;20591;-54
2021/11/06 03:52:57;;;;;;;6.87;5.60;;;;;21.20;101660.00;;;;2072233;28;20218;-53
2021/11/06 03:53:58;;;;;;;8.07;6.07;;;;;21.20;101657.00;;;;2073969;28;20237;-53
2021/11/06 03:54:58;;;;;;;6.20;5.50;;;;;21.20;101659.00;;;;2073050;28;20830;-54
2021/11/06 03:55:59;;;;;;;7.07;5.67;;;;;21.20;101662.00;;;;2073224;28;20225;-54
2021/11/06 03:56:59;;;;;;;6.77;5.87;;;;;21.30;101658.00;;;;2070512;28;20210;-53
2021/11/06 03:57:59;;;;;;;6.43;5.50;;;;;21.20;101662.00;;;;2070508;28;20245;-53
2021/11/06 03:59:00;;;;;;;7.47;5.83;;;;;21.20;101658.00;;;;2069665;28;20218;-53
2021/11/06 04:00:01;;;;;;;5.87;5.00;;;;;21.20;101661.00;;;;2069756;28;20218;-54
2021/11/06 04:01:03;;;;;;;5.97;5.43;;;;;21.30;101662.00;;;;2070474;28;20218;-53
2021/11/06 04:02:03;;;;;;;6.85;5.70;;;;;21.30;101657.00;;;;2077567;28;20508;-53
2021/11/06 04:03:04;;;;;;;9.17;6.10;;;;;21.20;101661.00;;;;2077824;28;20344;-53
2021/11/06 04:04:04;;;;;;;6.30;5.63;;;;;21.30;101658.00;;;;2077534;28;20217;-55
2021/11/06 04:05:05;;;;;;;6.60;5.43;;;;;21.20;101655.00;;;;2078361;28;20216;-52
2021/11/06 04:06:05;;;;;;;6.97;5.97;;;;;21.20;101670.00;;;;2078548;28;20213;-53
2021/11/06 04:07:06;;;;;;;6.43;5.23;;;;;21.20;101666.00;;;;2078631;28;20697;-53
2021/11/06 04:08:06;;;;;;;7.30;5.90;;;;;21.20;101664.00;;;;2078412;28;20212;-53
2021/11/06 04:09:06;;;;;;;9.10;6.10;;;;;21.20;101667.00;;;;2077748;28;20218;-53
2021/11/06 04:10:07;;;;;;;6.40;5.60;;;;;21.20;101665.00;;;;2077647;28;20232;-53
2021/11/06 04:11:08;;;;;;;6.78;5.45;;;;;21.20;101663.00;;;;2071081;28;20649;-53
2021/11/06 04:12:08;;;;;;;8.07;5.70;;;;;21.20;101666.00;;;;2070697;28;20214;-53
2021/11/06 04:13:09;;;;;;;5.67;4.97;;;;;21.20;101665.00;;;;2069783;28;20218;-53
2021/11/06 04:14:09;;;;;;;6.60;5.90;;;;;21.20;101667.00;;;;2061463;28;20214;-53
2021/11/06 04:15:10;;;;;;;8.53;5.67;;;;;21.20;101672.00;;;;2069740;28;20214;-53
2021/11/06 04:16:10;;;;;;;5.33;4.67;;;;;21.20;101661.00;;;;2070120;28;20214;-53
2021/11/06 04:17:10;;;;;;;5.83;5.00;;;;;21.20;101664.00;;;;2069941;28;20221;-53
2021/11/06 04:18:11;;;;;;;7.83;5.47;;;;;21.20;101661.00;;;;2073553;28;20426;-53
2021/11/06 04:19:11;;;;;;;6.23;5.30;;;;;21.20;101657.00;;;;2077714;28;20227;-53
2021/11/06 04:20:12;;;;;;;6.97;5.30;;;;;21.20;101661.00;;;;2078416;28;20304;-52
2021/11/06 04:21:12;;;;;;;5.33;4.80;;;;;21.20;101665.00;;;;2078332;28;20296;-53
2021/11/06 04:22:13;;;;;;;5.53;4.83;;;;;21.20;101671.00;;;;2078434;28;20317;-54
2021/11/06 04:23:13;;;;;;;7.10;5.27;;;;;21.20;101669.00;;;;2078423;28;20217;-53
2021/11/06 04:24:13;;;;;;;6.23;5.30;;;;;21.20;101668.00;;;;2077736;28;20783;-53
2021/11/06 04:25:14;;;;;;;6.67;5.40;;;;;21.20;101663.00;;;;2077759;28;20217;-53
2021/11/06 04:26:14;;;;;;;7.07;5.63;;;;;21.20;101671.00;;;;2078410;28;20217;-53
2021/11/06 04:27:14;;;;;;;7.10;5.40;;;;;21.20;101670.00;;;;2078312;28;20217;-53
2021/11/06 04:28:15;;;;;;;6.40;5.00;;;;;21.20;101668.00;;;;2078340;28;20593;-53
2021/11/06 04:29:15;;;;;;;6.00;5.13;;;;;21.20;101674.00;;;;2077571;28;20214;-53
2021/11/06 04:30:15;;;;;;;7.50;5.40;;;;;21.20;101665.00;;;;2078596;28;20224;-53
2021/11/06 04:31:16;;;;;;;6.60;5.50;;;;;21.20;101659.00;;;;2078191;28;20228;-53
2021/11/06 04:32:16;;;;;;;5.63;4.90;;;;;21.20;101625.00;;;;2076601;28;20214;-53
2021/11/06 04:33:16;;;;;;;8.23;5.00;;;;;21.20;101669.00;;;;2069897;28;20691;-53
2021/11/06 04:34:17;;;;;;;6.80;4.70;;;;;21.20;101660.00;;;;2069063;28;20321;-53
2021/11/06 04:35:17;;;;;;;5.03;4.53;;;;;21.20;101664.00;;;;2069517;28;20691;-52
2021/11/06 04:36:17;;;;;;;5.97;5.00;;;;;21.20;101664.00;;;;2070175;28;20273;-53
2021/11/06 04:37:18;;;;;;;7.90;5.27;;;;;21.10;101662.00;;;;2077833;28;20205;-53
2021/11/06 04:38:18;;;;;;;6.00;5.07;;;;;21.20;101659.00;;;;2079364;28;20300;-53
2021/11/06 04:39:18;;;;;;;5.57;4.50;;;;;21.20;101675.00;;;;2078340;28;20213;-53
2021/11/06 04:40:19;;;;;;;5.20;4.30;;;;;21.10;101666.00;;;;2077896;28;20293;-53
2021/11/06 04:41:19;;;;;;;7.17;5.00;;;;;21.20;101674.00;;;;2071869;28;20259;-53
2021/11/06 04:42:20;;;;;;;6.23;5.60;;;;;21.10;101660.00;;;;2075540;28;20214;-53
2021/11/06 04:43:20;;;;;;;5.90;4.93;;;;;21.20;101669.00;;;;2072678;28;20217;-53
2021/11/06 04:44:21;;;;;;;5.30;4.80;;;;;21.10;101672.00;;;;2074100;28;20214;-53
2021/11/06 04:45:21;;;;;;;5.13;4.63;;;;;21.10;101674.00;;;;2072171;28;20213;-53
2021/11/06 04:46:21;;;;;;;5.43;4.50;;;;;21.10;101679.00;;;;2071375;28;20206;-53
2021/11/06 04:47:22;;;;;;;6.93;5.07;;;;;21.10;101673.00;;;;2071731;28;20211;-53
2021/11/06 04:48:22;;;;;;;5.23;4.73;;;;;21.10;101673.00;;;;2071574;28;20210;-53
2021/11/06 04:49:22;;;;;;;5.30;4.37;;;;;21.10;101672.00;;;;2070891;28;20229;-53
2021/11/06 04:50:23;;;;;;;6.00;4.33;;;;;21.10;101669.00;;;;2071774;28;20226;-52
2021/11/06 04:51:23;;;;;;;5.03;4.20;;;;;21.20;101669.00;;;;2071793;28;20288;-53
2021/11/06 04:52:23;;;;;;;5.03;4.33;;;;;21.10;101673.00;;;;2071778;28;20210;-53
2021/11/06 04:53:24;;;;;;;6.43;5.07;;;;;21.10;101673.00;;;;2074784;28;20313;-53
2021/11/06 04:54:24;;;;;;;5.93;4.20;;;;;21.10;101674.00;;;;2079706;28;20248;-53
2021/11/06 04:55:25;;;;;;;6.53;4.70;;;;;21.10;101669.00;;;;2079599;28;20228;-53